createdAt,value
2019-02-23T00:02:08.921Z,80.60
2019-02-23T00:04:35.570Z,80.50
2019-02-23T00:07:01.988Z,80.40
2019-02-23T00:09:28.260Z,80.30
2019-02-23T00:11:54.655Z,80.30
2019-02-23T00:14:20.959Z,80.30
2019-02-23T00:16:47.411Z,80.50
2019-02-23T00:19:24.185Z,80.30
2019-02-23T00:21:41.812Z,80.30
2019-02-23T00:27:30.703Z,80.20
2019-02-23T00:29:57.021Z,80.00
2019-02-23T00:32:23.672Z,80.20
2019-02-23T00:34:50.090Z,80.30
2019-02-23T00:37:16.425Z,80.40
2019-02-23T00:39:42.852Z,80.40
2019-02-23T00:42:09.184Z,80.30
2019-02-23T00:44:35.836Z,81.10
2019-02-23T00:47:02.135Z,80.40
2019-02-23T00:49:35.883Z,80.30
2019-02-23T00:51:56.631Z,80.20
2019-02-23T00:54:22.985Z,80.30
2019-02-23T00:56:49.826Z,80.30
2019-02-23T00:59:16.103Z,80.50
2019-02-23T01:01:42.381Z,80.40
2019-02-23T01:04:08.715Z,80.50
2019-02-23T01:06:35.046Z,80.60
2019-02-23T01:09:01.288Z,80.50
2019-02-23T01:11:27.680Z,80.60
2019-02-23T01:13:53.984Z,80.70
2019-02-23T01:16:20.367Z,80.70
2019-02-23T01:18:46.677Z,80.50
2019-02-23T01:21:13.028Z,80.50
2019-02-23T01:23:39.281Z,80.40
2019-02-23T01:26:05.573Z,80.30
2019-02-23T01:28:31.917Z,80.40
2019-02-23T01:30:58.163Z,80.90
2019-02-23T01:33:24.682Z,80.30
2019-02-23T01:35:51.010Z,80.20
2019-02-23T01:38:17.274Z,80.20
2019-02-23T01:40:43.676Z,80.10
2019-02-23T01:43:09.956Z,80.10
2019-02-23T01:45:42.375Z,80.20
2019-02-23T01:48:04.610Z,80.10
2019-02-23T01:50:30.937Z,80.90
2019-02-23T01:52:57.255Z,80.10
2019-02-23T01:55:23.703Z,80.20
2019-02-23T01:57:49.955Z,80.10
2019-02-23T02:00:16.566Z,80.10
2019-02-23T02:02:43.641Z,80.20
2019-02-23T02:05:10.560Z,80.50
2019-02-23T02:07:36.955Z,80.20
2019-02-23T02:10:06.665Z,80.20
2019-02-23T02:12:32.958Z,80.30
2019-02-23T02:14:59.261Z,80.40
2019-02-23T02:17:25.540Z,80.30
2019-02-23T02:19:51.918Z,80.30
2019-02-23T02:22:18.249Z,80.20
2019-02-23T02:24:44.537Z,80.20
2019-02-23T02:27:10.908Z,81.00
2019-02-23T02:29:37.239Z,80.10
2019-02-23T02:32:03.532Z,80.10
2019-02-23T02:34:29.920Z,80.90
2019-02-23T02:36:57.305Z,80.10
2019-02-23T02:39:23.808Z,80.10
2019-02-23T02:41:50.634Z,80.10
2019-02-23T02:44:17.063Z,80.10
2019-02-23T02:46:43.396Z,80.20
2019-02-23T02:49:09.723Z,80.30
2019-02-23T02:51:36.150Z,80.30
2019-02-23T02:54:02.590Z,80.40
2019-02-23T02:56:28.920Z,80.50
2019-02-23T02:58:55.251Z,81.10
2019-02-23T03:01:21.530Z,80.40
2019-02-23T03:03:47.808Z,80.40
2019-02-23T03:06:14.139Z,80.40
2019-02-23T03:08:40.675Z,80.40
2019-02-23T03:11:07.210Z,80.40
2019-02-23T03:13:34.153Z,80.20
2019-02-23T03:16:00.488Z,80.20
2019-02-23T03:18:26.814Z,79.80
2019-02-23T03:20:53.145Z,80.10
2019-02-23T03:23:19.578Z,80.10
2019-02-23T03:25:45.818Z,79.70
2019-02-23T03:28:12.136Z,79.60
2019-02-23T03:30:38.821Z,79.50
2019-02-23T03:33:05.266Z,79.60
2019-02-23T03:35:31.639Z,79.50
2019-02-23T03:37:57.926Z,79.50
2019-02-23T03:40:24.298Z,79.40
2019-02-23T03:42:50.638Z,79.30
2019-02-23T03:45:17.295Z,79.50
2019-02-23T03:47:43.589Z,79.80
2019-02-23T03:50:10.029Z,80.00
2019-02-23T03:52:36.374Z,81.10
2019-02-23T03:55:03.314Z,80.20
2019-02-23T03:57:29.636Z,80.30
2019-02-23T03:59:56.388Z,80.40
2019-02-23T04:02:24.506Z,80.40
2019-02-23T04:04:50.879Z,80.40
2019-02-23T04:07:17.213Z,80.50
2019-02-23T04:09:43.540Z,80.60
2019-02-23T04:12:09.810Z,80.80
2019-02-23T04:14:36.305Z,80.60
2019-02-23T04:17:02.535Z,80.70
2019-02-23T04:19:28.787Z,80.80
2019-02-23T04:21:55.065Z,80.70
2019-02-23T04:24:21.842Z,80.60
2019-02-23T04:26:48.141Z,80.70
2019-02-23T04:29:14.440Z,80.70
2019-02-23T04:31:40.819Z,80.80
2019-02-23T04:34:07.372Z,80.70
2019-02-23T04:36:33.657Z,80.80
2019-02-23T04:38:59.974Z,80.70
2019-02-23T04:41:26.299Z,80.50
2019-02-23T04:43:52.675Z,80.50
2019-02-23T04:46:19.005Z,80.50
2019-02-23T04:48:45.335Z,80.40
2019-02-23T04:51:14.575Z,80.60
2019-02-23T04:53:40.024Z,80.40
2019-02-23T04:56:06.373Z,80.50
2019-02-23T04:58:32.806Z,80.40
2019-02-23T05:00:59.139Z,80.40
2019-02-23T05:03:25.399Z,80.30
2019-02-23T05:05:51.798Z,80.30
2019-02-23T05:08:18.010Z,80.20
2019-02-23T05:10:44.355Z,80.20
2019-02-23T05:13:10.605Z,80.20
2019-02-23T05:15:36.910Z,80.10
2019-02-23T05:18:03.244Z,80.10
2019-02-23T05:20:29.524Z,80.10
2019-02-23T05:22:55.904Z,80.00
2019-02-23T05:25:22.558Z,80.20
2019-02-23T05:27:48.877Z,80.30
2019-02-23T05:30:15.150Z,80.40
2019-02-23T05:32:41.640Z,80.60
2019-02-23T05:35:12.265Z,80.70
2019-02-23T05:37:38.484Z,80.70
2019-02-23T05:40:08.001Z,80.70
2019-02-23T05:42:34.418Z,80.70
2019-02-23T05:45:00.762Z,80.70
2019-02-23T05:47:27.094Z,80.80
2019-02-23T05:49:55.287Z,80.70
2019-02-23T05:52:21.475Z,80.60
2019-02-23T05:54:48.163Z,80.80
2019-02-23T05:57:14.564Z,80.70
2019-02-23T05:59:41.003Z,80.70
2019-02-23T06:02:07.428Z,80.80
2019-02-23T06:04:34.082Z,80.80
2019-02-23T06:07:00.384Z,80.60
2019-02-23T06:09:26.831Z,80.60
2019-02-23T06:11:53.158Z,80.70
2019-02-23T06:14:19.395Z,80.50
2019-02-23T06:17:05.627Z,80.50
2019-02-23T06:19:32.021Z,79.50
2019-02-23T06:21:58.446Z,80.50
2019-02-23T06:24:24.781Z,80.80
2019-02-23T06:26:51.429Z,80.70
2019-02-23T06:29:17.747Z,80.70
2019-02-23T06:31:44.385Z,80.70
2019-02-23T06:34:16.281Z,80.70
2019-02-23T06:36:38.753Z,80.60
2019-02-23T06:39:05.091Z,80.80
2019-02-23T06:41:31.686Z,80.60
2019-02-23T06:43:58.087Z,80.70
2019-02-23T06:46:24.414Z,80.80
2019-02-23T06:48:50.745Z,81.00
2019-02-23T06:51:17.102Z,81.00
2019-02-23T06:53:43.404Z,81.10
2019-02-23T06:56:09.689Z,81.20
2019-02-23T06:58:36.020Z,81.30
2019-02-23T07:01:02.397Z,81.10
2019-02-23T07:03:28.949Z,81.20
2019-02-23T07:05:55.269Z,81.10
2019-02-23T07:10:48.660Z,80.50
2019-02-23T07:13:15.070Z,81.10
2019-02-23T07:15:41.281Z,81.00
2019-02-23T07:18:07.560Z,81.10
2019-02-23T07:20:43.814Z,81.10
2019-02-23T07:23:01.952Z,81.30
2019-02-23T07:25:28.259Z,81.30
2019-02-23T07:27:54.590Z,81.30
2019-02-23T07:30:21.020Z,80.80
2019-02-23T07:32:47.454Z,81.40
2019-02-23T07:35:13.784Z,81.60
2019-02-23T07:37:40.017Z,81.60
2019-02-23T07:40:13.791Z,81.60
2019-02-23T07:42:40.372Z,81.90
2019-02-23T07:45:08.423Z,82.00
2019-02-23T07:47:34.672Z,82.10
2019-02-23T07:50:01.186Z,83.10
2019-02-23T07:52:27.403Z,82.40
2019-02-23T07:54:53.950Z,82.70
2019-02-23T07:57:20.255Z,82.80
2019-02-23T07:59:46.540Z,83.10
2019-02-23T08:02:12.941Z,83.10
2019-02-23T08:04:39.245Z,83.90
2019-02-23T08:07:05.651Z,83.30
2019-02-23T08:09:31.979Z,83.40
2019-02-23T08:11:58.326Z,83.40
2019-02-23T08:14:24.912Z,83.40
2019-02-23T08:16:51.274Z,83.40
2019-02-23T08:19:17.666Z,83.50
2019-02-23T08:21:43.954Z,83.60
2019-02-23T08:24:10.324Z,83.40
2019-02-23T08:26:36.761Z,83.50
2019-02-23T08:29:03.088Z,83.60
2019-02-23T08:31:29.671Z,83.50
2019-02-23T08:33:56.055Z,83.30
2019-02-23T08:36:23.760Z,83.10
2019-02-23T08:38:50.351Z,83.60
2019-02-23T08:41:17.648Z,83.10
2019-02-23T08:43:43.946Z,83.00
2019-02-23T08:46:10.591Z,82.50
2019-02-23T08:48:37.010Z,82.60
2019-02-23T08:51:03.334Z,82.80
2019-02-23T08:53:29.664Z,83.50
2019-02-23T08:55:55.938Z,82.60
2019-02-23T08:58:22.543Z,82.30
2019-02-23T09:00:48.860Z,82.10
2019-02-23T09:03:15.293Z,81.80
2019-02-23T09:05:41.741Z,81.60
2019-02-23T09:08:08.482Z,81.20
2019-02-23T09:10:34.897Z,81.20
2019-02-23T09:13:01.552Z,81.30
2019-02-23T09:15:27.865Z,81.30
2019-02-23T09:17:54.196Z,81.30
2019-02-23T09:20:28.753Z,81.60
2019-02-23T09:22:59.493Z,81.20
2019-02-23T09:25:16.770Z,81.00
2019-02-23T09:27:43.329Z,80.40
2019-02-23T09:30:11.251Z,80.10
2019-02-23T09:32:37.610Z,79.60
2019-02-23T09:35:04.588Z,79.50
2019-02-23T09:37:30.987Z,79.00
2019-02-23T09:39:57.312Z,78.90
2019-02-23T09:42:23.643Z,78.60
2019-02-23T09:44:49.974Z,77.70
2019-02-23T09:47:16.313Z,78.90
2019-02-23T09:49:44.503Z,78.20
2019-02-23T09:52:10.909Z,77.60
2019-02-23T09:54:37.297Z,77.70
2019-02-23T09:57:03.678Z,76.90
2019-02-23T09:59:30.105Z,77.00
2019-02-23T10:01:56.337Z,77.00
2019-02-23T10:04:22.766Z,76.40
2019-02-23T10:06:48.996Z,76.00
2019-02-23T10:09:15.394Z,76.00
2019-02-23T10:11:42.082Z,76.40
2019-02-23T10:14:08.498Z,75.80
2019-02-23T10:16:34.826Z,75.50
2019-02-23T10:19:03.029Z,75.90
2019-02-23T10:21:29.195Z,75.20
2019-02-23T10:23:55.877Z,74.80
2019-02-23T10:26:22.206Z,74.00
2019-02-23T10:28:48.526Z,72.90
2019-02-23T10:31:14.858Z,73.30
2019-02-23T10:33:47.451Z,72.80
2019-02-23T10:36:09.180Z,72.80
2019-02-23T10:38:35.588Z,73.60
2019-02-23T10:41:01.918Z,73.00
2019-02-23T10:43:28.207Z,72.70
2019-02-23T10:45:54.831Z,72.00
2019-02-23T10:48:21.219Z,70.80
2019-02-23T10:50:49.228Z,71.20
2019-02-23T10:53:15.620Z,71.30
2019-02-23T10:55:41.913Z,72.00
2019-02-23T10:58:08.603Z,72.90
2019-02-23T11:00:35.096Z,72.10
2019-02-23T11:03:01.452Z,71.60
2019-02-23T11:05:27.693Z,70.90
2019-02-23T11:07:54.143Z,69.70
2019-02-23T11:10:21.887Z,70.70
2019-02-23T11:12:48.412Z,69.90
2019-02-23T11:15:16.424Z,69.10
2019-02-23T11:17:42.811Z,69.40
2019-02-23T11:20:09.703Z,68.90
2019-02-23T11:22:36.211Z,68.30
2019-02-23T11:25:04.514Z,68.50
2019-02-23T11:27:30.900Z,67.70
2019-02-23T11:29:57.228Z,67.70
2019-02-23T11:32:23.889Z,67.30
2019-02-23T11:34:50.244Z,67.20
2019-02-23T11:37:16.542Z,66.60
2019-02-23T11:39:42.856Z,66.90
2019-02-23T11:42:09.186Z,66.70
2019-02-23T11:44:35.937Z,66.50
2019-02-23T11:47:02.155Z,66.30
2019-02-23T11:49:28.484Z,65.70
2019-02-23T11:51:55.125Z,65.60
2019-02-23T11:54:21.773Z,65.50
2019-02-23T11:56:48.058Z,65.70
2019-02-23T11:59:14.419Z,65.60
2019-02-23T12:01:40.662Z,66.40
2019-02-23T12:04:06.884Z,65.50
2019-02-23T12:06:33.310Z,65.10
2019-02-23T12:08:59.590Z,64.10
2019-02-23T12:11:25.982Z,64.30
2019-02-23T12:13:52.286Z,63.80
2019-02-23T12:16:18.652Z,63.50
2019-02-23T12:18:44.890Z,63.10
2019-02-23T12:21:11.198Z,63.50
2019-02-23T12:23:37.471Z,64.50
2019-02-23T12:26:03.770Z,64.00
2019-02-23T12:28:30.077Z,63.10
2019-02-23T12:30:56.367Z,62.60
2019-02-23T12:33:22.738Z,62.00
2019-02-23T12:35:48.944Z,61.50
2019-02-23T12:38:15.297Z,60.40
2019-02-23T12:40:41.548Z,60.90
2019-02-23T12:43:07.957Z,59.80
2019-02-23T12:45:35.210Z,60.40
2019-02-23T12:48:01.554Z,60.40
2019-02-23T12:50:27.837Z,58.40
2019-02-23T12:52:54.200Z,59.00
2019-02-23T12:55:20.531Z,57.60
2019-02-23T12:57:46.759Z,57.60
2019-02-23T13:00:15.035Z,58.10
2019-02-23T13:02:41.351Z,57.10
2019-02-23T13:05:08.698Z,56.70
2019-02-23T13:07:34.963Z,56.60
2019-02-23T13:10:01.232Z,55.90
2019-02-23T13:12:47.270Z,56.60
2019-02-23T13:15:17.182Z,56.30
2019-02-23T13:18:05.786Z,56.00
2019-02-23T13:20:52.809Z,55.70
2019-02-23T13:23:42.656Z,56.10
2019-02-23T13:26:33.418Z,56.40
2019-02-23T13:29:17.056Z,55.60
2019-02-23T13:32:08.387Z,55.30
2019-02-23T13:34:44.322Z,55.30
2019-02-23T13:37:42.218Z,55.50
2019-02-23T13:40:15.192Z,55.90
2019-02-23T13:42:52.761Z,54.60
2019-02-23T13:45:31.411Z,53.80
2019-02-23T13:48:07.437Z,53.80
2019-02-23T13:50:37.682Z,53.20
2019-02-23T13:53:26.129Z,52.80
2019-02-23T13:56:08.240Z,53.30
2019-02-23T13:58:47.680Z,53.80
2019-02-23T14:01:25.211Z,52.70
2019-02-23T14:04:07.367Z,52.50
2019-02-23T14:06:46.502Z,52.20
2019-02-23T14:09:48.980Z,51.70
2019-02-23T14:12:19.079Z,52.90
2019-02-23T14:15:02.059Z,52.10
2019-02-23T14:17:53.028Z,51.90
2019-02-23T14:20:23.146Z,52.40
2019-02-23T14:23:05.472Z,50.90
2019-02-23T14:25:52.257Z,51.10
2019-02-23T14:28:22.336Z,50.40
2019-02-23T14:31:01.419Z,49.50
2019-02-23T14:33:34.493Z,48.90
2019-02-23T14:36:21.530Z,50.40
2019-02-23T14:39:14.857Z,49.80
2019-02-23T14:42:04.576Z,49.20
2019-02-23T14:45:00.841Z,47.10
2019-02-23T14:47:46.275Z,48.00
2019-02-23T14:50:19.346Z,48.90
2019-02-23T14:53:05.866Z,48.00
2019-02-23T14:55:52.904Z,49.00
2019-02-23T14:58:32.308Z,49.70
2019-02-23T15:01:20.801Z,49.70
2019-02-23T15:04:06.033Z,50.80
2019-02-23T15:06:57.676Z,49.50
2019-02-23T15:09:27.837Z,49.70
2019-02-23T15:12:14.791Z,49.00
2019-02-23T15:15:08.257Z,48.30
2019-02-23T15:17:53.399Z,48.70
2019-02-23T15:20:35.528Z,49.20
2019-02-23T15:23:08.514Z,49.00
2019-02-23T15:25:38.630Z,47.90
2019-02-23T15:28:35.626Z,48.50
2019-02-23T15:31:13.958Z,48.60
2019-02-23T15:33:53.479Z,48.40
2019-02-23T15:36:29.553Z,47.10
2019-02-23T15:39:16.480Z,46.90
2019-02-23T15:42:03.691Z,46.40
2019-02-23T15:44:59.332Z,45.00
2019-02-23T15:47:41.503Z,45.10
2019-02-23T15:50:12.995Z,45.40
2019-02-23T15:52:38.005Z,45.90
2019-02-23T15:55:05.387Z,45.00
2019-02-23T15:57:31.818Z,45.50
2019-02-23T15:59:58.237Z,46.00
2019-02-23T16:02:24.653Z,46.60
2019-02-23T16:04:52.789Z,46.80
2019-02-23T16:07:19.021Z,46.80
2019-02-23T16:09:45.386Z,46.90
2019-02-23T16:12:11.734Z,46.40
2019-02-23T16:14:38.037Z,46.70
2019-02-23T16:17:04.323Z,46.50
2019-02-23T16:19:30.627Z,46.50
2019-02-23T16:21:56.933Z,46.70
2019-02-23T16:24:23.243Z,47.90
2019-02-23T16:26:51.460Z,47.30
2019-02-23T16:29:17.980Z,47.30
2019-02-23T16:31:44.284Z,47.20
2019-02-23T16:34:10.939Z,46.60
2019-02-23T16:36:37.498Z,46.90
2019-02-23T16:39:07.603Z,47.30
2019-02-23T16:41:33.923Z,47.50
2019-02-23T16:44:00.573Z,47.50
2019-02-23T16:46:26.993Z,47.40
2019-02-23T16:48:55.210Z,47.60
2019-02-23T16:51:21.370Z,47.80
2019-02-23T16:53:48.968Z,47.90
2019-02-23T16:56:15.590Z,47.70
2019-02-23T16:58:41.940Z,47.80
2019-02-23T17:01:08.161Z,47.80
2019-02-23T17:03:34.564Z,47.80
2019-02-23T17:06:01.013Z,48.00
2019-02-23T17:08:27.284Z,48.00
2019-02-23T17:10:53.674Z,48.10
2019-02-23T17:13:19.929Z,48.10
2019-02-23T17:15:46.336Z,48.00
2019-02-23T17:18:12.664Z,48.10
2019-02-23T17:20:38.998Z,48.40
2019-02-23T17:23:05.428Z,48.70
2019-02-23T17:25:32.091Z,49.00
2019-02-23T17:27:58.498Z,49.10
2019-02-23T17:30:24.828Z,49.10
2019-02-23T17:32:51.161Z,49.20
2019-02-23T17:35:17.490Z,49.40
2019-02-23T17:37:44.154Z,49.50
2019-02-23T17:40:10.560Z,49.60
2019-02-23T17:42:36.850Z,49.90
2019-02-23T17:45:06.552Z,50.00
2019-02-23T17:47:33.142Z,50.20
2019-02-23T17:49:59.462Z,50.30
2019-02-23T17:52:25.896Z,50.50
2019-02-23T17:54:52.547Z,50.70
2019-02-23T17:57:18.857Z,50.90
2019-02-23T17:59:45.193Z,51.10
2019-02-23T18:02:13.197Z,51.30
2019-02-23T18:04:39.492Z,51.30
2019-02-23T18:07:05.933Z,51.30
2019-02-23T18:09:32.261Z,51.50
2019-02-23T18:11:58.501Z,51.60
2019-02-23T18:14:24.810Z,51.60
2019-02-23T18:16:51.145Z,51.80
2019-02-23T18:19:17.473Z,52.00
2019-02-23T18:21:44.023Z,51.90
2019-02-23T18:24:10.351Z,52.10
2019-02-23T18:26:36.634Z,52.00
2019-02-23T18:29:03.049Z,52.20
2019-02-23T18:31:29.294Z,53.10
2019-02-23T18:33:55.588Z,53.30
2019-02-23T18:36:21.795Z,53.50
2019-02-23T18:38:48.136Z,53.50
2019-02-23T18:41:14.410Z,53.60
2019-02-23T18:43:40.707Z,53.60
2019-02-23T18:46:07.035Z,53.60
2019-02-23T18:48:33.306Z,53.70
2019-02-23T18:50:59.670Z,53.60
2019-02-23T18:53:25.958Z,53.70
2019-02-23T18:55:52.249Z,54.00
2019-02-23T18:58:20.264Z,54.10
2019-02-23T19:00:46.610Z,54.40
2019-02-23T19:03:12.899Z,54.60
2019-02-23T19:05:39.589Z,54.90
2019-02-23T19:08:05.964Z,55.10
2019-02-23T19:10:32.398Z,55.20
2019-02-23T19:12:58.698Z,55.30
2019-02-23T19:15:25.059Z,55.40
2019-02-23T19:17:51.314Z,55.30
2019-02-23T19:20:17.588Z,55.30
2019-02-23T19:22:43.945Z,55.40
2019-02-23T19:25:10.274Z,55.30
2019-02-23T19:27:36.589Z,55.30
2019-02-23T19:30:05.674Z,55.30
2019-02-23T19:32:32.440Z,55.20
2019-02-23T19:34:58.642Z,55.20
2019-02-23T19:37:24.999Z,55.20
2019-02-23T19:39:51.226Z,55.20
2019-02-23T19:42:17.506Z,55.30
2019-02-23T19:44:43.828Z,55.40
2019-02-23T19:47:10.319Z,55.40
2019-02-23T19:49:36.650Z,55.40
2019-02-23T19:52:02.901Z,55.50
2019-02-23T19:54:29.200Z,55.30
2019-02-23T19:56:55.511Z,55.30
2019-02-23T19:59:21.870Z,55.20
2019-02-23T20:01:48.098Z,55.10
2019-02-23T20:04:14.329Z,54.90
2019-02-23T20:06:40.655Z,54.80
2019-02-23T20:09:06.915Z,54.80
2019-02-23T20:11:33.232Z,54.70
2019-02-23T20:14:01.269Z,54.50
2019-02-23T20:16:27.614Z,54.40
2019-02-23T20:18:54.047Z,54.30
2019-02-23T20:21:20.382Z,54.30
2019-02-23T20:23:47.990Z,54.20
2019-02-23T20:26:14.352Z,54.10
2019-02-23T20:28:40.644Z,54.10
2019-02-23T20:31:06.947Z,53.90
2019-02-23T20:33:33.360Z,53.90
2019-02-23T20:36:00.015Z,53.80
2019-02-23T20:38:26.313Z,53.70
2019-02-23T20:40:52.600Z,53.70
2019-02-23T20:43:18.904Z,53.50
2019-02-23T20:45:45.220Z,53.50
2019-02-23T20:48:11.607Z,53.40
2019-02-23T20:50:37.902Z,53.40
2019-02-23T20:53:05.890Z,53.30
2019-02-23T20:55:32.102Z,53.40
2019-02-23T20:57:58.415Z,53.20
2019-02-23T21:00:24.704Z,53.30
2019-02-23T21:02:51.101Z,53.20
2019-02-23T21:05:17.497Z,53.20
2019-02-23T21:07:43.795Z,53.80
2019-02-23T21:10:10.158Z,53.10
2019-02-23T21:12:36.491Z,53.00
2019-02-23T21:15:04.893Z,53.00
2019-02-23T21:17:31.413Z,53.00
2019-02-23T21:19:57.732Z,52.90
2019-02-23T21:22:24.063Z,53.00
2019-02-23T21:24:50.393Z,53.00
2019-02-23T21:27:16.637Z,53.00
2019-02-23T21:29:42.958Z,52.60
2019-02-23T21:32:09.292Z,52.50
2019-02-23T21:34:35.544Z,53.00
2019-02-23T21:37:01.950Z,52.90
2019-02-23T21:39:28.226Z,53.30
2019-02-23T21:41:54.521Z,53.00
2019-02-23T21:44:20.932Z,52.90
2019-02-23T21:46:47.266Z,53.40
2019-02-23T21:49:13.594Z,52.80
2019-02-23T21:51:39.924Z,52.60
2019-02-23T21:54:10.147Z,52.60
2019-02-23T21:56:34.564Z,52.60
2019-02-23T21:59:01.084Z,52.70
2019-02-23T22:01:27.401Z,52.70
2019-02-23T22:03:53.689Z,52.80
2019-02-23T22:06:19.966Z,52.60
2019-02-23T22:08:46.247Z,52.60
2019-02-23T22:11:12.553Z,52.60
2019-02-23T22:13:38.832Z,52.70
2019-02-23T22:16:05.159Z,52.70
2019-02-23T22:18:31.431Z,52.70
2019-02-23T22:20:57.846Z,52.70
2019-02-23T22:23:24.173Z,52.60
2019-02-23T22:25:50.497Z,52.70
2019-02-23T22:28:16.734Z,52.70
2019-02-23T22:30:43.069Z,52.80
2019-02-23T22:33:09.361Z,52.80
2019-02-23T22:35:36.136Z,52.70
2019-02-23T22:38:02.442Z,52.70
2019-02-23T22:40:28.730Z,52.80
2019-02-23T22:42:55.030Z,52.70
2019-02-23T22:45:21.609Z,52.80
2019-02-23T22:47:47.903Z,52.70
2019-02-23T22:50:14.310Z,52.70
2019-02-23T22:52:40.537Z,52.70
2019-02-23T22:55:06.970Z,52.70
2019-02-23T22:57:40.205Z,52.90
2019-02-23T23:00:01.315Z,52.80
2019-02-23T23:02:27.803Z,52.80
2019-02-23T23:04:54.117Z,52.90
2019-02-23T23:07:20.462Z,53.00
2019-02-23T23:09:46.776Z,53.00
2019-02-23T23:12:13.125Z,53.00
2019-02-23T23:14:39.556Z,52.90
2019-02-23T23:17:05.886Z,53.00
2019-02-23T23:19:32.183Z,53.00
2019-02-23T23:21:58.548Z,53.00
2019-02-23T23:24:24.877Z,53.00
2019-02-23T23:26:51.105Z,53.00
2019-02-23T23:29:17.378Z,53.00
2019-02-23T23:31:43.773Z,53.00
2019-02-23T23:34:10.073Z,53.10
2019-02-23T23:36:36.358Z,53.10
2019-02-23T23:39:04.190Z,53.00
2019-02-23T23:41:31.442Z,53.10
2019-02-23T23:43:59.388Z,53.10
2019-02-23T23:46:25.945Z,53.10
2019-02-23T23:48:52.276Z,53.20
2019-02-23T23:51:18.608Z,53.20
2019-02-23T23:53:44.874Z,53.10
2019-02-23T23:56:11.486Z,53.30
2019-02-23T23:58:37.801Z,53.30
